createdAt,value
2022-10-23T00:00:58.876Z,20.23
2022-10-23T00:03:25.470Z,18.17
2022-10-23T00:05:52.049Z,17.63
2022-10-23T00:08:18.604Z,19.65
2022-10-23T00:10:45.370Z,20.02
2022-10-23T00:13:12.115Z,18.05
2022-10-23T00:15:38.870Z,15.75
2022-10-23T00:18:05.585Z,18.02
2022-10-23T00:20:36.434Z,16.65
2022-10-23T00:23:03.077Z,16.08
2022-10-23T00:25:29.693Z,15.25
2022-10-23T00:27:56.422Z,15.75
2022-10-23T00:30:23.172Z,16.75
2022-10-23T00:32:49.727Z,17.20
2022-10-23T00:35:16.432Z,17.40
2022-10-23T00:37:43.304Z,16.58
2022-10-23T00:40:10.524Z,14.93
2022-10-23T00:42:37.094Z,18.10
2022-10-23T00:45:25.666Z,16.23
2022-10-23T00:47:52.625Z,15.10
2022-10-23T00:50:19.324Z,18.83
2022-10-23T00:52:47.713Z,17.83
2022-10-23T00:55:14.934Z,17.75
2022-10-23T00:57:42.393Z,17.13
2022-10-23T01:00:11.854Z,16.42
2022-10-23T01:02:38.588Z,21.30
2022-10-23T01:05:05.488Z,18.60
2022-10-23T01:07:41.657Z,16.38
2022-10-23T01:10:17.500Z,17.15
2022-10-23T01:13:10.327Z,17.65
2022-10-23T01:15:52.538Z,14.32
2022-10-23T01:18:24.651Z,16.45
2022-10-23T01:20:53.565Z,15.88
2022-10-23T01:23:23.644Z,15.93
2022-10-23T01:25:59.569Z,18.38
2022-10-23T01:28:30.664Z,19.05
2022-10-23T01:30:58.420Z,17.52
2022-10-23T01:33:31.982Z,19.88
2022-10-23T01:36:04.122Z,15.95
2022-10-23T01:38:36.355Z,16.42
2022-10-23T01:41:07.465Z,17.27
2022-10-23T01:43:54.237Z,17.67
2022-10-23T01:46:20.818Z,20.33
2022-10-23T01:48:51.403Z,19.17
2022-10-23T01:51:18.554Z,16.80
2022-10-23T01:53:45.500Z,16.42
2022-10-23T01:56:13.672Z,16.35
2022-10-23T01:58:41.179Z,16.55
2022-10-23T02:01:07.916Z,16.42
2022-10-23T02:03:34.588Z,16.95
2022-10-23T02:06:01.212Z,19.70
2022-10-23T02:08:27.806Z,21.92
2022-10-23T02:11:00.777Z,22.90
2022-10-23T02:13:40.102Z,19.95
2022-10-23T02:16:10.574Z,19.95
2022-10-23T02:19:07.000Z,20.42
2022-10-23T02:22:33.715Z,18.33
2022-10-23T02:25:10.525Z,15.77
2022-10-23T02:27:45.812Z,16.25
2022-10-23T02:30:13.994Z,13.50
2022-10-23T02:32:42.773Z,19.63
2022-10-23T02:35:12.349Z,17.15
2022-10-23T02:37:39.065Z,17.38
2022-10-23T02:40:06.377Z,16.27
2022-10-23T02:42:36.784Z,15.55
2022-10-23T02:45:11.576Z,18.80
2022-10-23T02:47:46.895Z,17.00
2022-10-23T02:50:32.136Z,18.08
2022-10-23T02:53:02.522Z,20.90
2022-10-23T02:55:38.189Z,17.50
2022-10-23T02:58:12.266Z,16.77
2022-10-23T03:00:39.753Z,16.70
2022-10-23T03:03:11.956Z,20.38
2022-10-23T03:05:39.122Z,22.48
2022-10-23T03:08:06.611Z,22.92
2022-10-23T03:10:33.217Z,16.30
2022-10-23T03:12:59.858Z,19.00
2022-10-23T03:15:26.661Z,16.45
2022-10-23T03:17:53.295Z,13.75
2022-10-23T03:20:19.930Z,13.30
2022-10-23T03:22:46.621Z,13.43
2022-10-23T03:25:13.316Z,14.23
2022-10-23T03:27:39.940Z,13.68
2022-10-23T03:30:07.067Z,12.68
2022-10-23T03:32:33.785Z,12.13
2022-10-23T03:35:00.467Z,12.60
2022-10-23T03:37:27.194Z,12.27
2022-10-23T03:39:53.906Z,12.20
2022-10-23T03:42:20.607Z,11.82
2022-10-23T03:44:47.298Z,11.18
2022-10-23T03:47:14.194Z,11.98
2022-10-23T03:49:40.764Z,13.00
2022-10-23T03:52:07.649Z,11.40
2022-10-23T03:54:34.407Z,12.20
2022-10-23T03:57:01.176Z,12.65
2022-10-23T03:59:28.021Z,13.05
2022-10-23T04:01:54.943Z,14.05
2022-10-23T04:04:21.664Z,13.05
2022-10-23T04:06:48.250Z,13.38
2022-10-23T04:09:15.138Z,12.48
2022-10-23T04:11:41.887Z,12.35
2022-10-23T04:14:10.227Z,12.80
2022-10-23T04:16:36.807Z,14.60
2022-10-23T04:19:04.192Z,15.00
2022-10-23T04:21:30.926Z,13.05
2022-10-23T04:23:57.530Z,14.20
2022-10-23T04:26:24.135Z,12.55
2022-10-23T04:28:50.767Z,10.70
2022-10-23T04:31:17.433Z,11.68
2022-10-23T04:33:44.045Z,11.00
2022-10-23T04:36:10.679Z,9.75
2022-10-23T04:38:37.626Z,11.95
2022-10-23T04:41:04.268Z,11.55
2022-10-23T04:43:30.853Z,10.55
2022-10-23T04:45:57.450Z,12.35
2022-10-23T04:48:26.921Z,11.30
2022-10-23T04:51:00.016Z,11.50
2022-10-23T04:53:26.901Z,10.77
2022-10-23T04:55:54.587Z,10.95
2022-10-23T04:58:21.405Z,10.77
2022-10-23T05:00:48.279Z,12.38
2022-10-23T05:03:15.400Z,9.82
2022-10-23T05:05:42.343Z,8.90
2022-10-23T05:08:08.997Z,11.65
2022-10-23T05:10:35.603Z,10.77
2022-10-23T05:13:02.725Z,9.68
2022-10-23T05:15:29.378Z,10.45
2022-10-23T05:17:58.188Z,9.90
2022-10-23T05:20:26.671Z,10.07
2022-10-23T05:22:53.487Z,10.65
2022-10-23T05:25:20.048Z,13.27
2022-10-23T05:27:46.623Z,11.23
2022-10-23T05:30:13.557Z,11.27
2022-10-23T05:32:40.423Z,13.02
2022-10-23T05:35:09.018Z,13.75
2022-10-23T05:37:38.197Z,17.30
2022-10-23T05:40:05.225Z,22.38
2022-10-23T05:42:31.841Z,19.00
2022-10-23T05:44:58.468Z,15.90
2022-10-23T05:47:25.141Z,15.93
2022-10-23T05:49:51.753Z,15.55
2022-10-23T05:52:20.294Z,13.60
2022-10-23T05:54:46.870Z,13.60
2022-10-23T05:57:13.554Z,12.48
2022-10-23T05:59:40.190Z,13.77
2022-10-23T06:02:06.930Z,13.68
2022-10-23T06:04:35.283Z,14.07
2022-10-23T06:07:02.748Z,13.90
2022-10-23T06:09:29.455Z,15.70
2022-10-23T06:11:56.134Z,13.68
2022-10-23T06:14:22.760Z,15.10
2022-10-23T06:16:49.413Z,15.73
2022-10-23T06:19:15.985Z,16.25
2022-10-23T06:21:42.642Z,14.75
2022-10-23T06:24:09.301Z,14.25
2022-10-23T06:26:35.980Z,14.15
2022-10-23T06:29:02.567Z,14.35
2022-10-23T06:31:29.146Z,12.77
2022-10-23T06:33:56.362Z,12.27
2022-10-23T06:36:23.015Z,12.35
2022-10-23T06:38:49.879Z,12.63
2022-10-23T06:41:18.361Z,11.88
2022-10-23T06:43:47.188Z,11.70
2022-10-23T06:46:13.826Z,12.45
2022-10-23T06:48:41.927Z,11.43
2022-10-23T06:51:10.476Z,12.55
2022-10-23T06:53:37.242Z,12.68
2022-10-23T06:56:04.357Z,13.43
2022-10-23T06:58:31.008Z,12.30
2022-10-23T07:01:01.851Z,12.35
2022-10-23T07:03:28.703Z,12.98
2022-10-23T07:05:55.462Z,13.15
2022-10-23T07:08:22.184Z,13.15
2022-10-23T07:10:48.924Z,12.77
2022-10-23T07:13:15.565Z,14.02
2022-10-23T07:15:42.152Z,12.27
2022-10-23T07:18:14.526Z,12.20
2022-10-23T07:20:41.561Z,14.15
2022-10-23T07:23:08.878Z,13.57
2022-10-23T07:25:35.461Z,13.50
2022-10-23T07:28:02.078Z,12.90
2022-10-23T07:30:28.636Z,12.45
2022-10-23T07:32:55.285Z,13.32
2022-10-23T07:35:22.061Z,13.07
2022-10-23T07:37:48.772Z,13.20
2022-10-23T07:40:15.546Z,13.07
2022-10-23T07:42:42.139Z,11.80
2022-10-23T07:45:09.157Z,12.35
2022-10-23T07:47:35.769Z,12.40
2022-10-23T07:50:02.512Z,13.93
2022-10-23T07:52:32.085Z,12.88
2022-10-23T07:55:01.838Z,12.50
2022-10-23T07:57:28.616Z,11.75
2022-10-23T07:59:55.307Z,10.95
2022-10-23T08:02:21.940Z,11.27
2022-10-23T08:04:49.732Z,8.55
2022-10-23T08:07:16.341Z,10.52
2022-10-23T08:09:42.952Z,10.05
2022-10-23T08:12:09.902Z,10.20
2022-10-23T08:14:36.481Z,9.68
2022-10-23T08:17:05.156Z,9.95
2022-10-23T08:19:32.208Z,10.70
2022-10-23T08:21:58.979Z,10.57
2022-10-23T08:24:25.597Z,9.45
2022-10-23T08:26:52.339Z,8.88
2022-10-23T08:29:18.947Z,9.00
2022-10-23T08:31:45.840Z,9.18
2022-10-23T08:34:12.773Z,8.10
2022-10-23T08:36:39.411Z,7.15
2022-10-23T08:39:06.088Z,7.80
2022-10-23T08:41:37.419Z,7.72
2022-10-23T08:44:15.031Z,8.57
2022-10-23T08:46:43.870Z,7.47
2022-10-23T08:49:41.352Z,7.03
2022-10-23T08:52:16.175Z,6.70
2022-10-23T08:54:53.123Z,6.45
2022-10-23T08:57:19.859Z,6.38
2022-10-23T09:00:14.139Z,6.03
2022-10-23T09:02:48.786Z,5.78
2022-10-23T09:05:30.876Z,5.55
2022-10-23T09:08:09.697Z,5.68
2022-10-23T09:11:18.380Z,6.07
2022-10-23T09:14:08.011Z,5.78
2022-10-23T09:16:44.318Z,6.15
2022-10-23T09:19:16.053Z,6.60
2022-10-23T09:21:44.355Z,5.80
2022-10-23T09:24:22.279Z,5.93
2022-10-23T09:26:51.128Z,5.10
2022-10-23T09:29:32.908Z,6.00
2022-10-23T09:32:00.630Z,4.85
2022-10-23T09:34:29.187Z,5.68
2022-10-23T09:37:00.559Z,5.35
2022-10-23T09:39:31.458Z,5.63
2022-10-23T09:41:58.489Z,6.05
2022-10-23T09:44:27.082Z,6.53
2022-10-23T09:47:05.752Z,5.88
2022-10-23T09:49:33.950Z,5.55
2022-10-23T09:52:01.620Z,5.28
2022-10-23T09:54:29.649Z,4.97
2022-10-23T09:56:56.504Z,5.72
2022-10-23T09:59:30.190Z,5.00
2022-10-23T10:01:58.826Z,4.78
2022-10-23T10:04:36.763Z,4.95
2022-10-23T10:07:04.808Z,4.47
2022-10-23T10:09:31.500Z,4.50
2022-10-23T10:12:09.333Z,4.50
2022-10-23T10:14:45.449Z,4.80
2022-10-23T10:17:20.341Z,4.60
2022-10-23T10:20:29.311Z,3.95
2022-10-23T10:23:33.766Z,4.10
2022-10-23T10:26:08.567Z,4.35
2022-10-23T10:31:12.038Z,3.47
2022-10-23T10:33:42.623Z,3.85
2022-10-23T10:36:40.831Z,3.40
2022-10-23T10:39:47.475Z,3.50
2022-10-23T10:42:29.428Z,3.45
2022-10-23T10:45:08.481Z,3.67
2022-10-23T10:48:00.348Z,3.58
2022-10-23T10:50:31.724Z,3.50
2022-10-23T10:53:07.557Z,3.47
2022-10-23T10:55:38.396Z,3.65
2022-10-23T10:58:26.124Z,3.40
2022-10-23T11:00:56.055Z,3.17
2022-10-23T11:03:42.581Z,3.15
2022-10-23T11:06:14.951Z,3.30
2022-10-23T11:08:56.197Z,3.10
2022-10-23T11:11:27.255Z,3.30
2022-10-23T11:13:55.134Z,3.78
2022-10-23T11:16:31.909Z,3.10
2022-10-23T11:19:11.429Z,3.30
2022-10-23T11:21:44.669Z,3.50
2022-10-23T11:24:20.497Z,3.00
2022-10-23T11:27:02.066Z,2.88
2022-10-23T11:29:51.824Z,2.58
2022-10-23T11:32:43.916Z,2.55
2022-10-23T11:35:48.096Z,2.63
2022-10-23T11:38:30.145Z,2.95
2022-10-23T11:41:04.163Z,2.63
2022-10-23T11:43:58.267Z,2.80
2022-10-23T11:46:38.758Z,2.95
2022-10-23T11:49:06.586Z,2.40
2022-10-23T11:51:37.928Z,2.63
2022-10-23T11:54:26.509Z,3.00
2022-10-23T11:57:10.515Z,3.03
2022-10-23T11:59:49.641Z,3.03
2022-10-23T12:02:24.990Z,2.55
2022-10-23T12:04:52.387Z,2.80
2022-10-23T12:07:33.244Z,2.60
2022-10-23T12:10:07.612Z,2.85
2022-10-23T12:12:42.490Z,2.60
2022-10-23T12:15:11.994Z,2.40
2022-10-23T12:17:39.022Z,2.13
2022-10-23T12:20:08.743Z,2.28
2022-10-23T12:22:51.558Z,2.33
2022-10-23T12:25:23.703Z,2.47
2022-10-23T12:28:00.310Z,2.75
2022-10-23T12:30:49.590Z,2.20
2022-10-23T12:33:42.393Z,2.35
2022-10-23T12:36:42.872Z,2.15
2022-10-23T12:39:39.152Z,2.38
2022-10-23T12:42:11.317Z,2.20
2022-10-23T12:44:38.993Z,1.90
2022-10-23T12:47:05.812Z,2.45
2022-10-23T12:49:33.724Z,2.33
2022-10-23T12:52:01.898Z,2.83
2022-10-23T12:54:28.687Z,2.40
2022-10-23T12:56:55.248Z,2.20
2022-10-23T12:59:26.510Z,2.88
2022-10-23T13:01:54.394Z,2.47
2022-10-23T13:04:23.910Z,2.30
2022-10-23T13:06:50.510Z,2.40
2022-10-23T13:09:38.738Z,2.13
2022-10-23T13:12:05.799Z,2.28
2022-10-23T13:14:38.209Z,2.30
2022-10-23T13:17:08.760Z,2.20
2022-10-23T13:19:35.486Z,2.20
2022-10-23T13:22:04.311Z,2.22
2022-10-23T13:24:31.036Z,2.15
2022-10-23T13:26:58.038Z,2.03
2022-10-23T13:29:31.592Z,2.15
2022-10-23T13:31:58.214Z,2.35
2022-10-23T13:34:31.208Z,2.17
2022-10-23T13:37:00.720Z,2.35
2022-10-23T13:39:36.549Z,1.88
2022-10-23T13:42:11.885Z,1.90
2022-10-23T13:44:38.632Z,2.40
2022-10-23T13:47:05.536Z,2.15
2022-10-23T13:49:32.338Z,2.38
2022-10-23T13:51:59.102Z,2.35
2022-10-23T13:56:55.255Z,1.98
2022-10-23T13:59:22.066Z,2.40
2022-10-23T14:01:49.233Z,2.35
2022-10-23T14:04:16.257Z,2.35
2022-10-23T14:06:42.928Z,2.10
2022-10-23T14:09:14.631Z,2.17
2022-10-23T14:11:41.267Z,1.95
2022-10-23T14:14:08.038Z,2.33
2022-10-23T14:16:34.677Z,2.40
2022-10-23T14:19:01.321Z,2.30
2022-10-23T14:21:27.913Z,2.10
2022-10-23T14:23:54.655Z,2.40
2022-10-23T14:26:23.317Z,3.28
2022-10-23T14:28:52.807Z,3.10
2022-10-23T14:31:19.468Z,3.13
2022-10-23T14:33:46.154Z,3.13
2022-10-23T14:36:12.876Z,2.58
2022-10-23T14:38:39.569Z,2.53
2022-10-23T14:41:13.496Z,2.80
2022-10-23T14:43:40.272Z,2.67
2022-10-23T14:46:14.614Z,2.80
2022-10-23T14:48:44.579Z,2.63
2022-10-23T14:51:27.843Z,2.65
2022-10-23T14:53:58.772Z,6.43
2022-10-23T14:56:26.164Z,3.92
2022-10-23T14:58:52.745Z,3.50
2022-10-23T15:01:19.598Z,2.70
2022-10-23T15:03:46.379Z,3.75
2022-10-23T15:06:17.538Z,3.83
2022-10-23T15:08:44.977Z,3.80
2022-10-23T15:11:12.706Z,3.50
2022-10-23T15:13:39.662Z,3.10
2022-10-23T15:16:08.148Z,2.60
2022-10-23T15:18:39.208Z,2.17
2022-10-23T15:21:06.590Z,2.40
2022-10-23T15:23:34.774Z,2.50
2022-10-23T15:26:03.277Z,2.60
2022-10-23T15:28:30.240Z,4.53
2022-10-23T15:30:56.915Z,3.28
2022-10-23T15:33:23.606Z,2.70
2022-10-23T15:35:50.776Z,2.70
2022-10-23T15:38:17.612Z,3.10
2022-10-23T15:40:45.762Z,2.38
2022-10-23T15:43:13.273Z,2.17
2022-10-23T15:45:40.129Z,3.00
2022-10-23T15:48:07.241Z,3.25
2022-10-23T15:50:34.120Z,2.67
2022-10-23T15:53:00.860Z,2.88
2022-10-23T15:55:27.544Z,3.03
2022-10-23T15:57:54.740Z,3.60
2022-10-23T16:00:21.530Z,3.88
2022-10-23T16:02:48.254Z,3.08
2022-10-23T16:05:17.417Z,4.55
2022-10-23T16:07:44.049Z,3.90
2022-10-23T16:10:10.642Z,3.38
2022-10-23T16:12:37.342Z,4.47
2022-10-23T16:15:04.147Z,4.50
2022-10-23T16:17:30.716Z,4.30
2022-10-23T16:19:57.315Z,5.55
2022-10-23T16:22:23.975Z,4.18
2022-10-23T16:24:50.553Z,5.28
2022-10-23T16:27:17.316Z,4.05
2022-10-23T16:29:44.026Z,2.92
2022-10-23T16:32:10.775Z,2.80
2022-10-23T16:34:37.617Z,3.10
2022-10-23T16:37:04.187Z,4.38
2022-10-23T16:39:31.601Z,4.70
2022-10-23T16:41:58.297Z,3.75
2022-10-23T16:44:24.989Z,3.95
2022-10-23T16:46:51.559Z,3.30
2022-10-23T16:49:18.222Z,3.00
2022-10-23T16:51:45.002Z,2.55
2022-10-23T16:54:11.612Z,3.00
2022-10-23T16:56:38.309Z,3.60
2022-10-23T16:59:05.672Z,4.00
2022-10-23T17:01:33.126Z,4.00
2022-10-23T17:03:59.872Z,3.55
2022-10-23T17:06:30.835Z,3.83
2022-10-23T17:08:57.729Z,3.50
2022-10-23T17:11:25.733Z,3.30
2022-10-23T17:13:59.337Z,4.65
2022-10-23T17:16:37.666Z,5.40
2022-10-23T17:19:15.949Z,5.22
2022-10-23T17:21:47.924Z,5.63
2022-10-23T17:24:14.628Z,5.72
2022-10-23T17:26:41.214Z,4.97
2022-10-23T17:29:09.594Z,4.43
2022-10-23T17:31:38.057Z,4.03
2022-10-23T17:34:06.486Z,3.60
2022-10-23T17:36:35.634Z,3.72
2022-10-23T17:39:02.400Z,3.65
2022-10-23T17:41:29.025Z,4.10
2022-10-23T17:43:56.527Z,3.95
2022-10-23T17:46:23.732Z,4.75
2022-10-23T17:48:50.383Z,5.03
2022-10-23T17:51:21.436Z,4.40
2022-10-23T17:53:51.443Z,3.90
2022-10-23T17:56:22.783Z,3.10
2022-10-23T17:58:50.352Z,3.53
2022-10-23T18:01:18.343Z,4.97
2022-10-23T18:03:45.050Z,4.18
2022-10-23T18:06:38.438Z,3.42
2022-10-23T18:09:05.326Z,4.75
2022-10-23T18:11:34.508Z,3.90
2022-10-23T18:14:01.386Z,3.42
2022-10-23T18:16:28.114Z,3.30
2022-10-23T18:18:55.056Z,3.60
2022-10-23T18:21:23.204Z,3.30
2022-10-23T18:23:50.089Z,3.35
2022-10-23T18:26:17.920Z,3.00
2022-10-23T18:28:48.395Z,3.15
2022-10-23T18:31:15.206Z,3.28
2022-10-23T18:33:41.919Z,3.08
2022-10-23T18:36:22.819Z,3.65
2022-10-23T18:38:49.537Z,3.70
2022-10-23T18:41:16.490Z,3.83
2022-10-23T18:43:44.743Z,4.65
2022-10-23T18:46:12.780Z,5.50
2022-10-23T18:48:39.585Z,4.07
2022-10-23T18:51:32.353Z,3.80
2022-10-23T18:54:00.574Z,4.88
2022-10-23T18:56:27.988Z,4.90
2022-10-23T18:58:56.029Z,5.70
2022-10-23T19:01:22.979Z,5.40
2022-10-23T19:03:49.893Z,5.78
2022-10-23T19:06:16.720Z,4.45
2022-10-23T19:08:43.893Z,4.32
2022-10-23T19:11:10.934Z,6.82
2022-10-23T19:13:39.227Z,5.47
2022-10-23T19:16:12.100Z,5.60
2022-10-23T19:18:38.802Z,5.70
2022-10-23T19:21:06.065Z,5.40
2022-10-23T19:23:36.403Z,4.68
2022-10-23T19:26:09.066Z,4.28
2022-10-23T19:28:37.827Z,4.07
2022-10-23T19:31:04.713Z,3.88
2022-10-23T19:33:32.617Z,3.65
2022-10-23T19:36:01.269Z,4.00
2022-10-23T19:38:32.101Z,3.90
2022-10-23T19:40:58.710Z,4.20
2022-10-23T19:43:25.375Z,4.60
2022-10-23T19:45:52.106Z,4.15
2022-10-23T19:48:18.701Z,3.92
2022-10-23T19:50:45.512Z,3.90
2022-10-23T19:53:12.143Z,3.85
2022-10-23T19:55:38.869Z,4.15
2022-10-23T19:58:05.743Z,3.97
2022-10-23T20:00:32.444Z,3.55
2022-10-23T20:02:59.154Z,3.88
2022-10-23T20:05:25.870Z,4.03
2022-10-23T20:07:52.662Z,4.30
2022-10-23T20:10:19.486Z,3.90
2022-10-23T20:12:56.372Z,3.47
2022-10-23T20:15:23.687Z,3.95
2022-10-23T20:17:50.303Z,3.90
2022-10-23T20:20:17.298Z,3.72
2022-10-23T20:22:44.274Z,3.83
2022-10-23T20:25:11.056Z,4.22
2022-10-23T20:30:09.969Z,3.40
2022-10-23T20:32:36.615Z,3.60
2022-10-23T20:35:03.420Z,4.30
2022-10-23T20:37:30.603Z,4.13
2022-10-23T20:40:04.846Z,3.25
2022-10-23T20:42:31.460Z,3.60
2022-10-23T20:44:58.053Z,3.40
2022-10-23T20:47:24.613Z,4.18
2022-10-23T20:49:51.228Z,3.75
2022-10-23T20:52:17.916Z,3.55
2022-10-23T20:54:44.785Z,3.63
2022-10-23T20:57:11.622Z,3.65
2022-10-23T20:59:38.345Z,3.80
2022-10-23T21:02:05.209Z,4.00
2022-10-23T21:04:32.023Z,4.30
2022-10-23T21:07:14.124Z,3.88
2022-10-23T21:09:40.801Z,4.13
2022-10-23T21:12:07.780Z,4.03
2022-10-23T21:14:34.856Z,3.50
2022-10-23T21:17:01.543Z,3.60
2022-10-23T21:19:28.245Z,4.65
2022-10-23T21:21:55.142Z,4.20
2022-10-23T21:24:21.853Z,4.63
2022-10-23T21:26:48.515Z,4.43
2022-10-23T21:29:19.456Z,3.95
2022-10-23T21:31:59.888Z,4.72
2022-10-23T21:34:27.205Z,4.30
2022-10-23T21:37:12.602Z,3.70
2022-10-23T21:39:39.973Z,4.15
2022-10-23T21:42:06.611Z,4.18
2022-10-23T21:44:33.305Z,4.05
2022-10-23T21:47:00.007Z,3.90
2022-10-23T21:49:26.658Z,3.60
2022-10-23T21:51:55.238Z,4.55
2022-10-23T21:54:21.982Z,4.82
2022-10-23T21:56:50.087Z,5.00
2022-10-23T21:59:18.828Z,5.13
2022-10-23T22:01:46.241Z,4.50
2022-10-23T22:04:17.253Z,4.32
2022-10-23T22:06:44.210Z,4.63
2022-10-23T22:09:12.382Z,5.85
2022-10-23T22:11:39.093Z,4.70
2022-10-23T22:14:05.758Z,3.72
2022-10-23T22:16:32.388Z,4.47
2022-10-23T22:18:59.041Z,4.63
2022-10-23T22:21:26.949Z,4.03
2022-10-23T22:23:54.758Z,4.53
2022-10-23T22:26:25.956Z,4.45
2022-10-23T22:28:53.872Z,4.30
2022-10-23T22:31:22.812Z,5.40
2022-10-23T22:33:49.841Z,5.95
2022-10-23T22:36:16.528Z,5.00
2022-10-23T22:38:43.335Z,6.00
2022-10-23T22:41:10.040Z,5.20
2022-10-23T22:43:36.709Z,6.68
2022-10-23T22:46:08.558Z,5.47
2022-10-23T22:48:35.553Z,5.70
2022-10-23T22:51:02.238Z,5.50
2022-10-23T22:53:28.880Z,5.25
2022-10-23T22:55:55.641Z,5.80
2022-10-23T22:58:22.413Z,5.22
2022-10-23T23:00:49.125Z,6.55
2022-10-23T23:03:16.077Z,6.30
2022-10-23T23:05:47.097Z,6.43
2022-10-23T23:08:14.383Z,6.10
2022-10-23T23:10:41.208Z,6.47
2022-10-23T23:13:07.812Z,7.03
2022-10-23T23:15:39.257Z,6.60
2022-10-23T23:18:05.928Z,6.78
2022-10-23T23:20:32.574Z,6.90
2022-10-23T23:22:59.283Z,6.57
2022-10-23T23:25:26.017Z,6.50
2022-10-23T23:27:52.586Z,5.70
2022-10-23T23:30:19.137Z,7.53
2022-10-23T23:32:47.734Z,5.95
2022-10-23T23:35:14.374Z,7.38
2022-10-23T23:37:40.937Z,6.53
2022-10-23T23:40:08.099Z,6.03
2022-10-23T23:42:34.743Z,6.90
2022-10-23T23:45:13.823Z,6.00
2022-10-23T23:47:41.725Z,6.03
2022-10-23T23:50:09.269Z,6.18
2022-10-23T23:52:35.868Z,6.68
2022-10-23T23:55:02.475Z,6.13
2022-10-23T23:57:29.115Z,5.40
2022-10-23T23:59:55.833Z,6.18
